Time;durP1;ratioP1;P1;durP2;ratioP2;P2;SDS_P1;SDS_P2;PMS_P1;PMS_P2;Temp;Humidity;BMP_temperature;BMP_pressure;BME280_temperature;BME280_humidity;BME280_pressure;Samples;Min_cycle;Max_cycle;Signal;HPM_P1;HPM_P2
2023/04/15 00:02:24;;;;;;;5.77;3.10;;;7.30;99.90;;;;;;5034994;28;20189;-86
2023/04/15 00:04:49;;;;;;;4.40;2.97;;;7.30;99.90;;;;;;5035050;28;20594;-85
2023/04/15 00:07:16;;;;;;;6.13;3.20;;;7.30;99.90;;;;;;5034733;28;20229;-86
2023/04/15 00:09:43;;;;;;;4.20;3.50;;;7.30;99.90;;;;;;5034646;28;20248;-85
2023/04/15 00:12:10;;;;;;;3.93;3.50;;;7.40;99.90;;;;;;5033721;28;20261;-85
2023/04/15 00:14:36;;;;;;;5.93;4.00;;;7.40;99.90;;;;;;5034769;28;20597;-84
2023/04/15 00:17:02;;;;;;;4.30;3.50;;;7.30;99.90;;;;;;5016678;28;20225;-84
2023/04/15 00:19:29;;;;;;;4.37;3.53;;;7.30;99.90;;;;;;5034553;28;20240;-84
2023/04/15 00:21:56;;;;;;;5.37;3.80;;;7.30;99.90;;;;;;5004536;28;20187;-85
2023/04/15 00:24:22;;;;;;;6.50;4.20;;;7.30;99.90;;;;;;5014825;28;20230;-85
2023/04/15 00:26:48;;;;;;;5.60;4.53;;;7.20;99.90;;;;;;5014759;28;20187;-85
2023/04/15 00:29:14;;;;;;;4.80;3.87;;;7.30;99.90;;;;;;5024025;28;20179;-85
2023/04/15 00:31:41;;;;;;;7.13;4.47;;;7.20;99.90;;;;;;5005288;28;20189;-85
2023/04/15 00:34:07;;;;;;;8.73;4.33;;;7.30;99.90;;;;;;5007320;28;20175;-85
2023/04/15 00:36:33;;;;;;;6.33;4.33;;;7.20;99.90;;;;;;5006290;28;20195;-84
2023/04/15 00:38:59;;;;;;;5.17;4.33;;;7.20;99.90;;;;;;5022993;28;20175;-85
2023/04/15 00:41:25;;;;;;;6.10;4.30;;;7.30;99.90;;;;;;5037043;28;20189;-84
2023/04/15 00:43:51;;;;;;;5.77;4.30;;;7.30;99.90;;;;;;5005849;28;20276;-84
2023/04/15 00:46:20;;;;;;;6.07;4.40;;;7.20;99.90;;;;;;5037838;28;20167;-85
2023/04/15 00:48:46;;;;;;;6.00;4.43;;;7.20;99.90;;;;;;5040932;28;20185;-85
2023/04/15 00:51:12;;;;;;;5.73;4.57;;;7.20;99.90;;;;;;5006369;28;20182;-85
2023/04/15 00:53:38;;;;;;;6.63;4.80;;;7.10;99.90;;;;;;5024636;28;20171;-85
2023/04/15 00:56:05;;;;;;;6.93;5.10;;;7.10;99.90;;;;;;5007325;28;20199;-84
2023/04/15 00:58:31;;;;;;;7.13;4.73;;;7.10;99.90;;;;;;5023247;28;20222;-84
2023/04/15 01:00:58;;;;;;;6.43;4.60;;;7.10;99.90;;;;;;5024398;28;20182;-85
2023/04/15 01:03:24;;;;;;;5.63;4.43;;;7.10;99.90;;;;;;5022362;28;20182;-85
2023/04/15 01:05:57;;;;;;;8.00;5.03;;;7.10;99.90;;;;;;4998527;28;20175;-85
2023/04/15 01:08:29;;;;;;;7.53;4.83;;;7.10;99.90;;;;;;5013947;28;20223;-85
2023/04/15 01:11:02;;;;;;;7.63;5.10;;;7.10;99.90;;;;;;5012526;28;20266;-85
2023/04/15 01:13:28;;;;;;;6.37;4.60;;;7.10;99.90;;;;;;4996112;28;20181;-85
2023/04/15 01:15:56;;;;;;;7.07;4.93;;;7.10;99.90;;;;;;4996343;28;20223;-86
2023/04/15 01:18:22;;;;;;;6.20;5.27;;;7.00;99.90;;;;;;4996306;28;20195;-86
2023/04/15 01:20:48;;;;;;;5.93;4.70;;;7.10;99.90;;;;;;5013830;28;20176;-85
2023/04/15 01:23:15;;;;;;;8.67;5.57;;;7.00;99.90;;;;;;5452248;22;20297;-85
2023/04/15 01:25:42;;;;;;;6.57;4.40;;;7.10;99.90;;;;;;5013045;28;20182;-84
2023/04/15 01:28:09;;;;;;;6.87;5.30;;;7.10;99.90;;;;;;5012840;28;20597;-85
2023/04/15 01:30:35;;;;;;;6.90;5.23;;;7.10;99.90;;;;;;5014122;28;20175;-85
2023/04/15 01:33:01;;;;;;;9.40;5.10;;;7.10;99.90;;;;;;5012508;28;20628;-85
2023/04/15 01:35:27;;;;;;;8.20;5.97;;;7.10;99.90;;;;;;5012427;28;20175;-85
2023/04/15 01:37:55;;;;;;;7.77;5.97;;;7.10;99.90;;;;;;5013317;28;20167;-84
2023/04/15 01:40:21;;;;;;;6.63;5.50;;;7.10;99.90;;;;;;5013769;28;20246;-85
2023/04/15 01:42:47;;;;;;;7.77;5.47;;;7.10;99.90;;;;;;5013797;28;20613;-84
2023/04/15 01:45:12;;;;;;;8.90;5.70;;;7.10;99.90;;;;;;5013666;28;20186;-84
2023/04/15 01:47:39;;;;;;;8.90;6.07;;;7.10;99.90;;;;;;5013737;28;20176;-85
2023/04/15 01:50:05;;;;;;;9.10;5.77;;;7.10;99.90;;;;;;5013592;28;20185;-84
2023/04/15 01:52:31;;;;;;;10.03;5.90;;;7.00;99.90;;;;;;5012409;28;20237;-84
2023/04/15 01:54:57;;;;;;;8.87;6.37;;;7.00;99.90;;;;;;5013258;28;20567;-85
2023/04/15 01:57:22;;;;;;;8.53;6.23;;;7.10;99.90;;;;;;5013880;28;20692;-84
2023/04/15 01:59:48;;;;;;;8.07;6.10;;;7.10;99.90;;;;;;5016163;28;20554;-84
2023/04/15 02:02:14;;;;;;;8.60;6.10;;;7.10;99.90;;;;;;5017143;28;20211;-83
2023/04/15 02:04:40;;;;;;;11.53;6.43;;;7.10;99.90;;;;;;5016047;28;20187;-84
2023/04/15 02:07:06;;;;;;;8.47;6.23;;;7.10;99.90;;;;;;5017527;28;20175;-84
2023/04/15 02:09:31;;;;;;;8.60;6.90;;;7.00;99.90;;;;;;5015630;28;20191;-84
2023/04/15 02:11:57;;;;;;;9.63;6.67;;;7.00;99.90;;;;;;5015915;28;20561;-83
2023/04/15 02:14:23;;;;;;;9.33;6.93;;;6.90;99.90;;;;;;5017149;28;20183;-83
2023/04/15 02:16:48;;;;;;;9.93;6.87;;;7.00;99.90;;;;;;5017132;28;20219;-84
2023/04/15 02:19:14;;;;;;;11.00;7.57;;;7.00;99.90;;;;;;5015827;28;20523;-83
2023/04/15 02:21:40;;;;;;;12.03;7.03;;;6.90;99.90;;;;;;5015464;28;20233;-83
2023/04/15 02:24:06;;;;;;;9.03;6.70;;;6.90;99.90;;;;;;5015227;28;20234;-83
2023/04/15 02:26:32;;;;;;;11.10;6.40;;;6.90;99.90;;;;;;5015841;28;20185;-83
2023/04/15 02:28:58;;;;;;;10.03;7.20;;;6.90;99.90;;;;;;5016857;28;20191;-83
2023/04/15 02:31:24;;;;;;;9.37;6.87;;;6.90;99.90;;;;;;5015427;28;20183;-83
2023/04/15 02:33:50;;;;;;;9.67;6.97;;;6.90;99.90;;;;;;5015584;28;20179;-83
2023/04/15 02:36:16;;;;;;;10.03;7.07;;;6.90;99.90;;;;;;5015366;28;20202;-83
2023/04/15 02:38:42;;;;;;;10.80;7.43;;;6.90;99.90;;;;;;5015301;28;20182;-83
2023/04/15 02:41:11;;;;;;;10.47;7.17;;;6.90;99.90;;;;;;5016616;28;20509;-83
2023/04/15 02:43:38;;;;;;;10.13;6.70;;;6.90;99.90;;;;;;5016490;28;20203;-83
2023/04/15 02:46:04;;;;;;;10.63;7.47;;;6.90;99.90;;;;;;5015432;28;20171;-83
2023/04/15 02:48:30;;;;;;;9.17;6.67;;;7.00;99.90;;;;;;5016579;28;20168;-82
2023/04/15 02:51:12;;;;;;;9.13;6.83;;;7.00;99.90;;;;;;5015031;28;20191;-83
2023/04/15 02:53:38;;;;;;;9.80;6.80;;;7.00;99.90;;;;;;5014812;28;20182;-82
2023/04/15 02:56:05;;;;;;;12.00;7.07;;;7.00;99.90;;;;;;5015289;28;20199;-82
2023/04/15 02:58:31;;;;;;;10.67;7.40;;;7.00;99.90;;;;;;5016439;28;20168;-82
2023/04/15 03:00:56;;;;;;;9.37;6.83;;;7.00;99.90;;;;;;5016043;28;20171;-83
2023/04/15 03:03:22;;;;;;;9.63;6.97;;;7.00;99.90;;;;;;5014765;28;20187;-83
2023/04/15 03:05:48;;;;;;;12.37;7.13;;;7.00;99.90;;;;;;5015136;28;20614;-83
2023/04/15 03:08:13;;;;;;;11.37;7.33;;;6.90;99.90;;;;;;5014169;28;20188;-84
2023/04/15 03:10:39;;;;;;;10.77;6.87;;;7.00;99.90;;;;;;5015648;28;20179;-84
2023/04/15 03:13:05;;;;;;;10.70;7.30;;;7.00;99.90;;;;;;5015613;28;20225;-84
2023/04/15 03:15:32;;;;;;;10.20;7.67;;;7.00;99.90;;;;;;5014827;28;20190;-84
2023/04/15 03:17:57;;;;;;;9.93;7.40;;;7.00;99.90;;;;;;5014898;28;20213;-84
2023/04/15 03:20:23;;;;;;;11.20;8.03;;;6.90;99.90;;;;;;5014557;28;20179;-85
2023/04/15 03:22:49;;;;;;;11.43;7.80;;;6.90;99.90;;;;;;5015716;28;20186;-85
2023/04/15 03:25:15;;;;;;;11.40;8.10;;;7.00;99.90;;;;;;5014502;28;20270;-85
2023/04/15 03:27:40;;;;;;;11.70;7.67;;;7.00;99.90;;;;;;5014752;28;20241;-86
2023/04/15 03:30:07;;;;;;;14.70;8.73;;;7.00;99.90;;;;;;5014587;28;20183;-86
2023/04/15 03:32:33;;;;;;;12.53;8.00;;;7.00;99.90;;;;;;5014609;28;20187;-87
2023/04/15 03:34:59;;;;;;;10.80;7.07;;;7.00;99.90;;;;;;5014699;28;20187;-87
2023/04/15 03:37:25;;;;;;;11.77;7.63;;;7.10;99.90;;;;;;5014699;28;20282;-86
2023/04/15 03:39:50;;;;;;;11.20;7.43;;;7.10;99.90;;;;;;5014097;28;20494;-87
2023/04/15 03:42:16;;;;;;;11.37;8.10;;;7.00;99.90;;;;;;5014315;28;20206;-86
2023/04/15 03:44:42;;;;;;;11.13;7.97;;;7.00;99.90;;;;;;5015729;28;20171;-86
2023/04/15 03:47:07;;;;;;;11.53;8.47;;;7.10;99.90;;;;;;5014383;28;20176;-86
2023/04/15 03:49:33;;;;;;;15.67;10.53;;;7.10;99.90;;;;;;5014512;28;20258;-87
2023/04/15 03:51:59;;;;;;;19.10;11.93;;;7.10;99.90;;;;;;5014570;28;20518;-87
2023/04/15 03:54:24;;;;;;;17.80;11.27;;;7.00;99.90;;;;;;5014114;28;20610;-87
2023/04/15 03:56:50;;;;;;;15.90;10.63;;;7.00;99.90;;;;;;5015496;28;20207;-87
2023/04/15 03:59:16;;;;;;;17.43;10.53;;;7.10;99.90;;;;;;5015550;28;20586;-87
2023/04/15 04:01:42;;;;;;;16.07;9.40;;;7.10;99.90;;;;;;5013979;28;20183;-87
2023/04/15 04:04:07;;;;;;;12.73;8.47;;;7.10;99.90;;;;;;5014426;28;20181;-87
2023/04/15 04:06:33;;;;;;;13.37;8.73;;;7.10;99.90;;;;;;5015508;28;20229;-87
2023/04/15 04:09:00;;;;;;;12.50;8.10;;;7.10;99.90;;;;;;5013869;28;20184;-88
2023/04/15 04:11:27;;;;;;;10.47;7.63;;;7.10;99.90;;;;;;5013490;28;20512;-87
2023/04/15 04:13:53;;;;;;;12.00;8.40;;;7.10;99.90;;;;;;5015206;28;20171;-87
2023/04/15 04:16:18;;;;;;;12.63;8.40;;;7.10;99.90;;;;;;5013877;28;20214;-87
2023/04/15 04:18:44;;;;;;;14.37;9.60;;;7.10;99.90;;;;;;5014016;28;20645;-86
2023/04/15 04:21:10;;;;;;;13.37;8.87;;;7.20;99.90;;;;;;5013827;28;20198;-86
2023/04/15 04:23:36;;;;;;;15.20;8.87;;;7.10;99.90;;;;;;5013273;28;20230;-87
2023/04/15 04:26:02;;;;;;;12.87;8.77;;;7.20;99.90;;;;;;5015000;28;20198;-87
2023/04/15 04:28:27;;;;;;;12.30;8.73;;;7.10;99.90;;;;;;5013673;28;20167;-87
2023/04/15 04:30:53;;;;;;;12.57;7.67;;;7.10;99.90;;;;;;5014705;28;20496;-86
2023/04/15 04:33:19;;;;;;;10.67;7.70;;;7.20;99.90;;;;;;5013582;28;20179;-86
2023/04/15 04:35:45;;;;;;;10.77;7.37;;;7.10;99.90;;;;;;5013450;28;20188;-86
2023/04/15 04:38:10;;;;;;;10.60;7.63;;;7.10;99.90;;;;;;5014600;28;20176;-86
2023/04/15 04:40:36;;;;;;;10.97;8.00;;;7.10;99.90;;;;;;5014292;28;20194;-86
2023/04/15 04:43:02;;;;;;;12.17;7.73;;;7.10;99.90;;;;;;5014532;28;20217;-85
2023/04/15 04:45:27;;;;;;;9.57;7.47;;;7.20;99.90;;;;;;5013195;28;20219;-85
2023/04/15 04:47:53;;;;;;;13.47;8.03;;;7.10;99.90;;;;;;5014615;28;20178;-85
2023/04/15 04:50:19;;;;;;;11.40;7.53;;;7.10;99.90;;;;;;5013188;28;20180;-84
2023/04/15 04:52:44;;;;;;;10.83;7.30;;;7.20;99.90;;;;;;5012919;28;20183;-85
2023/04/15 04:55:10;;;;;;;10.73;7.40;;;7.20;99.90;;;;;;5012837;28;20197;-85
2023/04/15 04:57:38;;;;;;;10.17;7.27;;;7.10;99.90;;;;;;5012987;28;20551;-86
2023/04/15 05:00:05;;;;;;;10.37;7.17;;;7.10;99.90;;;;;;5014078;28;20159;-85
2023/04/15 05:02:31;;;;;;;10.77;7.33;;;7.10;99.90;;;;;;5012911;28;20270;-87
2023/04/15 05:04:57;;;;;;;10.40;6.77;;;7.10;99.90;;;;;;5012924;28;20175;-86
2023/04/15 05:07:22;;;;;;;9.40;6.17;;;7.10;99.90;;;;;;5012975;28;20186;-87
2023/04/15 05:09:48;;;;;;;9.57;6.37;;;7.10;99.90;;;;;;5013575;28;20675;-87
2023/04/15 05:12:14;;;;;;;8.33;5.90;;;7.10;99.90;;;;;;5012922;28;20554;-86
2023/04/15 05:14:41;;;;;;;10.73;6.67;;;7.10;99.90;;;;;;5012735;28;20319;-87
2023/04/15 05:17:08;;;;;;;7.90;6.10;;;7.00;99.90;;;;;;5012663;28;20210;-86
2023/04/15 05:19:33;;;;;;;9.33;6.40;;;7.00;99.90;;;;;;5014128;28;20230;-87
2023/04/15 05:22:00;;;;;;;10.00;5.77;;;7.10;99.90;;;;;;5013779;28;20183;-86
2023/04/15 05:24:26;;;;;;;8.67;5.80;;;7.00;99.90;;;;;;5012306;28;20780;-83
2023/04/15 05:26:51;;;;;;;8.50;5.87;;;7.00;99.90;;;;;;5012539;28;20222;-86
2023/04/15 05:29:17;;;;;;;8.37;6.10;;;7.00;99.90;;;;;;5013925;28;20186;-85
2023/04/15 05:31:43;;;;;;;9.70;6.27;;;7.10;99.90;;;;;;5011878;28;20680;-85
2023/04/15 05:34:10;;;;;;;7.93;6.23;;;7.10;99.90;;;;;;5009489;28;20180;-84
2023/04/15 05:36:36;;;;;;;9.47;5.93;;;7.10;99.90;;;;;;5013977;28;20298;-85
2023/04/15 05:39:02;;;;;;;9.10;5.73;;;7.00;99.90;;;;;;5003151;28;20266;-85
2023/04/15 05:41:28;;;;;;;9.53;6.13;;;7.00;99.90;;;;;;4995307;28;20175;-86
2023/04/15 05:43:54;;;;;;;7.23;5.40;;;7.10;99.90;;;;;;4992685;28;20528;-84
2023/04/15 05:46:21;;;;;;;7.60;5.23;;;7.10;99.90;;;;;;4996676;28;20199;-83
2023/04/15 05:48:47;;;;;;;7.77;5.10;;;7.10;99.90;;;;;;5005342;28;20167;-84
2023/04/15 05:51:13;;;;;;;7.50;5.20;;;7.20;99.90;;;;;;5002715;28;20245;-85
2023/04/15 05:53:40;;;;;;;6.67;4.67;;;7.10;99.90;;;;;;5000017;28;20617;-85
2023/04/15 05:56:06;;;;;;;7.03;4.83;;;7.10;99.90;;;;;;5012223;28;20265;-87
2023/04/15 05:58:32;;;;;;;5.97;4.33;;;7.10;99.90;;;;;;5012527;28;20183;-84
2023/04/15 06:00:58;;;;;;;6.63;4.53;;;7.20;99.90;;;;;;5012241;28;20520;-86
2023/04/15 06:03:24;;;;;;;6.00;4.37;;;7.20;99.90;;;;;;5013504;28;20602;-86
2023/04/15 06:05:50;;;;;;;5.17;4.00;;;7.20;99.90;;;;;;5013301;28;20183;-87
2023/04/15 06:08:15;;;;;;;5.23;4.13;;;7.10;99.90;;;;;;5012432;28;20194;-85
2023/04/15 06:10:41;;;;;;;6.43;4.37;;;7.10;99.90;;;;;;5013126;28;20179;-84
2023/04/15 06:13:07;;;;;;;4.90;3.90;;;7.20;99.90;;;;;;5013042;28;20179;-84
2023/04/15 06:15:33;;;;;;;5.03;3.97;;;7.20;99.90;;;;;;5013656;28;20180;-85
2023/04/15 06:17:58;;;;;;;5.60;4.13;;;7.20;99.90;;;;;;5012110;28;20734;-85
2023/04/15 06:20:24;;;;;;;5.03;3.73;;;7.20;99.90;;;;;;5013240;28;20618;-85
2023/04/15 06:22:51;;;;;;;5.33;3.97;;;7.20;99.90;;;;;;5013133;28;20199;-85
2023/04/15 06:25:17;;;;;;;5.10;3.50;;;7.30;99.90;;;;;;5013657;28;20262;-87
2023/04/15 06:27:42;;;;;;;4.87;3.67;;;7.30;99.90;;;;;;5013365;28;20573;-84
2023/04/15 06:30:09;;;;;;;5.57;3.80;;;7.30;99.90;;;;;;5013443;28;20606;-85
2023/04/15 06:32:35;;;;;;;4.47;3.53;;;7.30;99.90;;;;;;5013313;28;20203;-86
2023/04/15 06:35:01;;;;;;;4.13;3.67;;;7.30;99.90;;;;;;5011902;28;20187;-87
2023/04/15 06:37:27;;;;;;;4.93;3.90;;;7.30;99.90;;;;;;5011993;28;20215;-85
2023/04/15 06:39:52;;;;;;;3.50;2.93;;;7.30;99.90;;;;;;5011197;28;20183;-85
2023/04/15 06:42:18;;;;;;;5.87;3.77;;;7.30;99.90;;;;;;5013089;28;20175;-87
2023/04/15 06:44:44;;;;;;;4.63;3.53;;;7.20;99.90;;;;;;5013772;28;20179;-86
2023/04/15 06:47:11;;;;;;;4.33;3.67;;;7.30;99.90;;;;;;5015482;28;20187;-85
2023/04/15 06:49:39;;;;;;;4.60;3.37;;;7.30;99.90;;;;;;5015077;28;20167;-86
2023/04/15 06:52:05;;;;;;;4.37;3.30;;;7.30;99.90;;;;;;5015350;28;20182;-85
2023/04/15 06:54:30;;;;;;;4.67;3.50;;;7.30;99.90;;;;;;5014477;28;20521;-85
2023/04/15 06:56:56;;;;;;;4.27;3.40;;;7.30;99.90;;;;;;5012465;28;20711;-85
2023/04/15 06:59:22;;;;;;;7.03;3.87;;;7.40;99.90;;;;;;5016480;28;20160;-88
2023/04/15 07:01:47;;;;;;;5.53;4.30;;;7.40;99.90;;;;;;5014983;28;20183;-85
2023/04/15 07:04:13;;;;;;;5.53;4.00;;;7.40;99.90;;;;;;5012525;28;20178;-85
2023/04/15 07:06:39;;;;;;;5.43;3.70;;;7.40;99.90;;;;;;5007983;28;20244;-85
2023/04/15 07:09:05;;;;;;;5.37;3.57;;;7.40;99.90;;;;;;5018097;28;20198;-84
2023/04/15 07:11:31;;;;;;;4.63;3.83;;;7.40;99.90;;;;;;5028285;28;20241;-85
2023/04/15 07:13:57;;;;;;;5.07;3.90;;;7.50;99.90;;;;;;5008404;28;20597;-84
2023/04/15 07:16:23;;;;;;;6.13;4.63;;;7.60;99.90;;;;;;5026152;28;20213;-84
2023/04/15 07:18:49;;;;;;;5.13;4.03;;;7.60;99.90;;;;;;5003211;28;20183;-84
2023/04/15 07:21:14;;;;;;;6.20;4.30;;;7.60;99.90;;;;;;5031272;28;20171;-85
2023/04/15 07:23:41;;;;;;;6.10;4.43;;;7.60;99.90;;;;;;5020534;28;20229;-84
2023/04/15 07:26:08;;;;;;;8.53;4.27;;;7.60;99.90;;;;;;5028647;28;20609;-85
2023/04/15 07:28:34;;;;;;;6.33;4.47;;;7.60;99.90;;;;;;5025102;28;20197;-84
2023/04/15 07:31:00;;;;;;;6.40;4.50;;;7.60;99.90;;;;;;5028425;28;20258;-84
2023/04/15 07:33:25;;;;;;;6.00;4.57;;;7.60;99.90;;;;;;5023954;28;20261;-85
2023/04/15 07:35:51;;;;;;;7.90;4.63;;;7.60;99.90;;;;;;5021860;28;20305;-85
2023/04/15 07:38:17;;;;;;;6.63;4.87;;;7.70;99.90;;;;;;5030996;28;20182;-85
2023/04/15 07:40:42;;;;;;;6.80;5.13;;;7.70;99.90;;;;;;5017435;28;20175;-85
2023/04/15 07:43:08;;;;;;;8.20;5.50;;;7.70;99.90;;;;;;5027338;28;20185;-84
2023/04/15 07:45:34;;;;;;;7.70;5.27;;;7.80;99.90;;;;;;5018958;28;20175;-83
2023/04/15 07:48:01;;;;;;;7.73;5.37;;;7.80;99.90;;;;;;5001221;28;20563;-85
2023/04/15 07:50:27;;;;;;;7.47;5.30;;;7.70;99.90;;;;;;5017575;28;20174;-85
2023/04/15 07:52:53;;;;;;;9.17;6.23;;;7.80;99.90;;;;;;5026110;28;20617;-86
2023/04/15 07:55:21;;;;;;;9.20;6.20;;;7.80;99.90;;;;;;5024307;28;20292;-85
2023/04/15 07:57:47;;;;;;;8.80;6.10;;;7.80;99.90;;;;;;5030204;28;20202;-86
2023/04/15 08:00:13;;;;;;;10.07;6.63;;;7.80;99.90;;;;;;5017074;28;20172;-85
2023/04/15 08:02:40;;;;;;;9.33;6.33;;;7.90;99.90;;;;;;5022655;28;20186;-85
2023/04/15 08:05:06;;;;;;;10.50;6.60;;;7.90;99.90;;;;;;5033586;28;20683;-85
2023/04/15 08:07:32;;;;;;;12.37;7.47;;;8.00;99.90;;;;;;5033559;28;20205;-86
2023/04/15 08:09:58;;;;;;;12.63;7.87;;;8.00;99.90;;;;;;5023599;28;20186;-86
2023/04/15 08:12:24;;;;;;;10.87;7.23;;;8.00;99.90;;;;;;5014144;28;20579;-86
2023/04/15 08:14:51;;;;;;;14.03;7.80;;;8.00;99.90;;;;;;5026922;28;20184;-84
2023/04/15 08:17:16;;;;;;;13.67;8.63;;;8.00;99.90;;;;;;5033440;28;20301;-86
2023/04/15 08:19:42;;;;;;;14.17;8.53;;;8.10;99.90;;;;;;5033283;28;20253;-85
2023/04/15 08:22:08;;;;;;;15.27;9.23;;;8.10;99.90;;;;;;5033140;28;20186;-84
2023/04/15 08:24:34;;;;;;;14.17;9.10;;;8.10;99.90;;;;;;5030831;28;20560;-85
2023/04/15 08:27:03;;;;;;;19.07;9.33;;;8.10;99.90;;;;;;5014754;28;20187;-86
2023/04/15 08:29:29;;;;;;;15.60;9.53;;;8.10;99.90;;;;;;5013476;28;20182;-86
2023/04/15 08:31:54;;;;;;;18.30;11.23;;;8.20;99.90;;;;;;5013738;28;20269;-86
2023/04/15 08:34:20;;;;;;;19.10;10.87;;;8.20;99.90;;;;;;5013751;28;20183;-85
2023/04/15 08:36:46;;;;;;;17.20;10.77;;;8.20;99.90;;;;;;5013256;28;20207;-86
2023/04/15 08:39:11;;;;;;;17.77;10.67;;;8.30;99.90;;;;;;5013642;28;20179;-85
2023/04/15 08:41:49;;;;;;;18.00;10.47;;;8.30;99.90;;;;;;5013125;28;20255;-85
2023/04/15 08:44:15;;;;;;;17.63;10.70;;;8.20;99.90;;;;;;5013078;28;20175;-86
2023/04/15 08:46:44;;;;;;;18.97;11.20;;;8.30;99.90;;;;;;5011857;28;20534;-87
2023/04/15 08:49:13;;;;;;;18.97;11.63;;;8.30;99.90;;;;;;5013239;28;20278;-85
2023/04/15 08:51:40;;;;;;;19.03;12.13;;;8.30;99.90;;;;;;5012298;28;20294;-84
2023/04/15 08:54:08;;;;;;;21.43;12.20;;;8.30;99.90;;;;;;5018105;28;20194;-87
2023/04/15 08:56:34;;;;;;;18.93;12.33;;;8.30;99.90;;;;;;5010144;28;20269;-85
2023/04/15 08:59:01;;;;;;;21.53;12.27;;;8.30;99.90;;;;;;5012503;28;20198;-85
2023/04/15 09:01:26;;;;;;;20.67;13.17;;;8.40;99.90;;;;;;5012716;28;20279;-86
2023/04/15 09:03:55;;;;;;;23.40;13.13;;;8.40;99.90;;;;;;5013867;28;20309;-85
2023/04/15 09:06:22;;;;;;;23.20;13.73;;;8.40;99.90;;;;;;5005149;28;20176;-84
2023/04/15 09:08:49;;;;;;;23.27;13.57;;;8.40;99.90;;;;;;5010616;28;20179;-84
2023/04/15 09:11:16;;;;;;;24.03;14.53;;;8.50;99.90;;;;;;5012248;28;20182;-84
2023/04/15 09:13:42;;;;;;;25.93;15.03;;;8.50;99.90;;;;;;5012131;28;20182;-84
2023/04/15 09:16:08;;;;;;;23.63;13.80;;;8.40;99.90;;;;;;5012393;28;20203;-84
2023/04/15 09:18:35;;;;;;;20.97;13.07;;;8.40;99.90;;;;;;5029754;28;20201;-84
2023/04/15 09:21:09;;;;;;;24.47;13.93;;;8.50;99.90;;;;;;5021775;28;20290;-84
2023/04/15 09:23:36;;;;;;;25.27;14.80;;;8.60;99.90;;;;;;5012004;28;20707;-84
2023/04/15 09:26:03;;;;;;;25.70;14.73;;;8.60;99.90;;;;;;5011969;28;20172;-85
2023/04/15 09:28:29;;;;;;;28.20;14.77;;;8.60;99.90;;;;;;5012573;28;20182;-84
2023/04/15 09:31:00;;;;;;;25.57;14.43;;;8.60;99.90;;;;;;5012192;28;20174;-86
2023/04/15 09:33:27;;;;;;;22.83;14.43;;;8.60;99.90;;;;;;5013007;28;20512;-86
2023/04/15 09:36:02;;;;;;;26.30;15.20;;;8.60;99.90;;;;;;5012815;28;20257;-86
2023/04/15 09:38:29;;;;;;;26.97;15.13;;;8.50;99.90;;;;;;5030284;28;20666;-85
2023/04/15 09:40:56;;;;;;;23.50;14.33;;;8.60;99.90;;;;;;5015819;28;20175;-86
2023/04/15 09:43:22;;;;;;;24.80;15.43;;;8.60;99.90;;;;;;5014055;28;20193;-85
2023/04/15 09:45:52;;;;;;;26.20;14.80;;;8.60;99.90;;;;;;5004661;28;20241;-85
2023/04/15 09:48:21;;;;;;;26.20;15.17;;;8.60;99.90;;;;;;4999326;28;20184;-86
2023/04/15 09:50:52;;;;;;;28.03;15.87;;;8.60;99.90;;;;;;4995220;28;20167;-85
2023/04/15 09:53:20;;;;;;;27.43;16.17;;;8.60;99.90;;;;;;5006935;28;20515;-85
2023/04/15 09:55:50;;;;;;;31.00;17.17;;;8.70;99.90;;;;;;5001006;28;20183;-85
2023/04/15 09:58:22;;;;;;;30.67;17.50;;;8.70;99.90;;;;;;5005900;28;20184;-86
2023/04/15 10:00:49;;;;;;;30.57;16.97;;;8.70;99.90;;;;;;5002727;28;20671;-87
2023/04/15 10:03:28;;;;;;;29.73;16.13;;;8.70;99.90;;;;;;5006133;28;20681;-86
2023/04/15 10:05:56;;;;;;;30.30;17.30;;;8.60;99.90;;;;;;5010972;28;20175;-86
2023/04/15 10:08:24;;;;;;;26.03;16.17;;;8.70;99.90;;;;;;5010616;28;20658;-86
2023/04/15 10:10:53;;;;;;;26.97;16.50;;;8.80;99.90;;;;;;5012608;28;20634;-86
2023/04/15 10:13:36;;;;;;;29.27;17.07;;;8.80;99.90;;;;;;5012008;28;20186;-86
2023/04/15 10:16:10;;;;;;;28.63;17.17;;;8.90;99.90;;;;;;5013632;28;20167;-87
2023/04/15 10:18:42;;;;;;;28.47;16.10;;;8.90;99.90;;;;;;5014200;28;20707;-87
2023/04/15 10:21:09;;;;;;;28.73;17.00;;;8.90;99.90;;;;;;5017259;28;20250;-86
2023/04/15 10:23:35;;;;;;;29.37;17.20;;;8.80;99.90;;;;;;5015790;28;20637;-87
2023/04/15 10:26:03;;;;;;;31.00;17.40;;;8.80;99.90;;;;;;5014825;28;20274;-87
2023/04/15 10:28:29;;;;;;;28.97;16.93;;;8.90;99.90;;;;;;5017184;28;20182;-87
2023/04/15 10:30:56;;;;;;;34.07;18.10;;;9.00;99.90;;;;;;5015555;28;20190;-87
2023/04/15 10:33:23;;;;;;;32.33;18.07;;;8.90;99.90;;;;;;5015500;28;20251;-87
2023/04/15 10:35:51;;;;;;;28.35;17.48;;;8.90;99.90;;;;;;5017109;28;20202;-86
2023/04/15 10:38:38;;;;;;;32.05;18.08;;;9.00;99.90;;;;;;5015910;28;20618;-87
2023/04/15 10:41:16;;;;;;;30.83;18.10;;;9.00;99.90;;;;;;5015389;28;20928;-86
2023/04/15 10:43:53;;;;;;;31.03;17.47;;;9.00;99.90;;;;;;5016918;28;20621;-86
2023/04/15 10:46:22;;;;;;;31.33;18.77;;;8.90;99.90;;;;;;5015657;28;20179;-87
2023/04/15 10:48:52;;;;;;;30.63;18.40;;;9.00;99.90;;;;;;5015673;28;20532;-86
2023/04/15 10:51:29;;;;;;;31.93;18.70;;;9.00;99.90;;;;;;5016324;28;20488;-87
2023/04/15 10:53:58;;;;;;;33.03;18.93;;;9.00;99.90;;;;;;5015816;28;20174;-87
2023/04/15 10:56:24;;;;;;;32.53;19.60;;;9.00;99.90;;;;;;5015097;28;20552;-86
2023/04/15 10:58:50;;;;;;;32.00;19.13;;;9.00;99.90;;;;;;5015402;28;20187;-87
2023/04/15 11:01:16;;;;;;;35.50;19.07;;;9.00;99.90;;;;;;5015486;28;20282;-86
2023/04/15 11:03:42;;;;;;;35.37;19.90;;;8.90;99.90;;;;;;5015182;28;20293;-86
2023/04/15 11:06:08;;;;;;;36.83;19.90;;;8.90;99.90;;;;;;5015234;28;20180;-86
2023/04/15 11:08:55;;;;;;;41.63;20.47;;;9.00;99.90;;;;;;5015065;28;20714;-86
2023/04/15 11:11:20;;;;;;;34.53;19.57;;;9.00;99.90;;;;;;5015858;28;20167;-86
2023/04/15 11:13:48;;;;;;;37.53;21.20;;;8.90;99.90;;;;;;5008936;28;20190;-86
2023/04/15 11:16:14;;;;;;;38.50;21.13;;;8.90;99.90;;;;;;4998889;28;20298;-86
2023/04/15 11:18:40;;;;;;;38.07;19.90;;;9.00;99.90;;;;;;5014932;28;20218;-87
2023/04/15 11:21:07;;;;;;;37.60;21.37;;;9.10;99.90;;;;;;5016137;28;20180;-87
2023/04/15 11:23:49;;;;;;;39.40;21.67;;;9.10;99.90;;;;;;5015896;28;20673;-85
2023/04/15 11:26:15;;;;;;;42.03;21.67;;;9.10;99.90;;;;;;5015105;28;20598;-86
2023/04/15 11:28:45;;;;;;;40.13;21.37;;;9.10;99.90;;;;;;5014693;28;20179;-86
2023/04/15 11:31:16;;;;;;;34.13;19.93;;;9.10;99.90;;;;;;5013579;28;20179;-89
2023/04/15 11:34:07;;;;;;;42.80;22.30;;;9.00;99.90;;;;;;5014907;28;20319;-85
2023/04/15 11:36:32;;;;;;;42.85;21.58;;;9.10;99.90;;;;;;5015458;28;20211;-87
2023/04/15 11:38:58;;;;;;;41.37;22.20;;;9.10;99.90;;;;;;5016260;28;20183;-85
2023/04/15 11:41:24;;;;;;;38.23;21.23;;;9.10;99.90;;;;;;5034151;28;20175;-86
2023/04/15 11:43:51;;;;;;;46.00;22.47;;;9.10;99.90;;;;;;5034312;28;20190;-86
2023/04/15 11:46:17;;;;;;;43.53;23.07;;;9.10;99.90;;;;;;5035405;28;20175;-85
2023/04/15 11:48:45;;;;;;;46.37;21.33;;;9.10;99.90;;;;;;5035524;28;20175;-85
2023/04/15 11:51:13;;;;;;;42.23;22.03;;;9.20;99.90;;;;;;5033882;28;20198;-85
2023/04/15 11:53:45;;;;;;;46.67;23.60;;;9.30;99.90;;;;;;5035293;28;20203;-86
2023/04/15 11:56:17;;;;;;;43.30;21.93;;;9.30;99.90;;;;;;5033774;28;20210;-86
2023/04/15 11:58:45;;;;;;;42.90;21.77;;;9.30;99.90;;;;;;5033834;28;20184;-86
2023/04/15 12:01:10;;;;;;;41.47;22.85;;;9.30;99.90;;;;;;5033811;28;20626;-86
2023/04/15 12:03:42;;;;;;;42.33;22.33;;;9.30;99.90;;;;;;5033954;28;20177;-86
2023/04/15 12:06:20;;;;;;;47.47;21.93;;;9.40;99.90;;;;;;5035009;28;20225;-87
2023/04/15 12:08:55;;;;;;;41.20;23.07;;;9.50;99.90;;;;;;5033747;28;20573;-85
2023/04/15 12:11:26;;;;;;;43.13;22.08;;;9.50;99.90;;;;;;5014226;28;20183;-85
2023/04/15 12:14:07;;;;;;;43.90;22.60;;;9.60;99.90;;;;;;5013971;28;20183;-86
2023/04/15 12:16:45;;;;;;;40.17;21.53;;;9.70;99.90;;;;;;5014965;28;20190;-86
2023/04/15 12:19:13;;;;;;;39.33;21.87;;;9.80;99.90;;;;;;5013833;28;20214;-85
2023/04/15 12:21:40;;;;;;;42.00;21.67;;;9.90;99.90;;;;;;5014732;28;20171;-86
2023/04/15 12:24:09;;;;;;;38.90;22.13;;;10.00;99.90;;;;;;5013497;28;20235;-86
2023/04/15 12:26:52;;;;;;;41.72;21.95;;;10.10;99.90;;;;;;5013342;28;20179;-85
2023/04/15 12:29:20;;;;;;;36.58;20.58;;;10.20;99.90;;;;;;5014752;28;20167;-85
2023/04/15 12:32:10;;;;;;;43.75;21.30;;;10.30;99.90;;;;;;5014745;28;20164;-86
2023/04/15 12:34:41;;;;;;;33.00;18.60;;;10.40;99.90;;;;;;5005691;28;20550;-85
2023/04/15 12:37:09;;;;;;;38.95;20.33;;;10.50;99.90;;;;;;5013414;28;20214;-85
2023/04/15 12:39:36;;;;;;;33.15;20.65;;;10.50;99.90;;;;;;5013215;28;20187;-85
2023/04/15 12:42:04;;;;;;;37.38;21.50;;;10.40;99.90;;;;;;5012848;28;20167;-84
2023/04/15 12:44:30;;;;;;;36.95;20.90;;;10.40;99.90;;;;;;5014548;28;20199;-84
2023/04/15 12:46:56;;;;;;;33.42;20.45;;;10.40;99.90;;;;;;5013304;28;20183;-85
2023/04/15 12:49:23;;;;;;;34.40;20.35;;;10.40;99.90;;;;;;5012948;28;20185;-85